createdAt,value
2023-07-31T00:05:11.511Z,98530.60
2023-07-31T00:08:14.503Z,98532.60
2023-07-31T00:11:18.913Z,98527.67
2023-07-31T00:14:21.944Z,98523.02
2023-07-31T00:17:25.111Z,98525.16
2023-07-31T00:20:28.006Z,98521.84
2023-07-31T00:23:31.166Z,98516.71
2023-07-31T00:26:34.127Z,98509.06
2023-07-31T00:29:37.107Z,98512.32
2023-07-31T00:32:41.175Z,98513.26
2023-07-31T00:35:44.232Z,98519.67
2023-07-31T00:38:47.216Z,98523.79
2023-07-31T00:41:50.163Z,98523.23
2023-07-31T00:44:54.162Z,98523.67
2023-07-31T00:47:58.575Z,98520.56
2023-07-31T00:51:02.646Z,98522.81
2023-07-31T00:54:05.637Z,98527.11
2023-07-31T00:57:09.980Z,98532.42
2023-07-31T01:00:13.686Z,98530.99
2023-07-31T01:03:16.413Z,98529.48
2023-07-31T01:06:22.308Z,98524.27
2023-07-31T01:10:03.939Z,98522.27
2023-07-31T01:13:07.746Z,98520.74
2023-07-31T01:16:10.698Z,98524.09
2023-07-31T01:19:16.206Z,98527.45
2023-07-31T01:22:37.429Z,98529.46
2023-07-31T01:26:06.835Z,98529.31
2023-07-31T01:29:27.089Z,98531.39
2023-07-31T01:32:31.201Z,98530.95
2023-07-31T01:35:36.401Z,98526.25
2023-07-31T01:38:39.324Z,98521.42
2023-07-31T01:41:41.951Z,98513.46
2023-07-31T01:44:44.776Z,98517.00
2023-07-31T01:47:47.742Z,98522.42
2023-07-31T01:50:50.957Z,98526.13
2023-07-31T01:53:53.911Z,98532.75
2023-07-31T01:56:57.294Z,98534.70
2023-07-31T02:00:00.091Z,98536.77
2023-07-31T02:05:30.984Z,98534.41
2023-07-31T02:08:33.946Z,98537.45
2023-07-31T02:11:35.868Z,98534.48
2023-07-31T02:14:37.891Z,98528.10
2023-07-31T02:17:39.896Z,98527.33
2023-07-31T02:20:42.698Z,98530.64
2023-07-31T02:23:44.656Z,98527.20
2023-07-31T02:26:47.331Z,98526.09
2023-07-31T02:29:49.920Z,98530.46
2023-07-31T02:32:52.122Z,98532.79
2023-07-31T02:35:54.252Z,98530.84
2023-07-31T02:38:59.510Z,98527.16
2023-07-31T02:42:02.463Z,98533.70
2023-07-31T02:45:05.822Z,98528.95
2023-07-31T02:48:07.967Z,98531.20
2023-07-31T02:51:09.902Z,98533.16
2023-07-31T02:54:11.996Z,98537.20
2023-07-31T02:57:14.159Z,98535.89
2023-07-31T03:00:16.369Z,98535.73
2023-07-31T03:03:18.705Z,98531.92
2023-07-31T03:06:21.484Z,98533.17
2023-07-31T03:09:23.739Z,98537.08
2023-07-31T03:12:25.909Z,98543.34
2023-07-31T03:15:28.004Z,98546.89
2023-07-31T03:18:30.180Z,98551.44
2023-07-31T03:21:32.333Z,98551.84
2023-07-31T03:24:40.434Z,98551.16
2023-07-31T03:27:42.530Z,98549.33
2023-07-31T03:30:46.095Z,98557.34
2023-07-31T03:33:48.076Z,98560.61
2023-07-31T03:36:50.754Z,98559.42
2023-07-31T03:39:53.051Z,98559.83
2023-07-31T03:42:55.059Z,98564.59
2023-07-31T03:45:57.272Z,98566.89
2023-07-31T03:49:00.454Z,98560.80
2023-07-31T03:52:02.556Z,98560.57
2023-07-31T03:55:05.466Z,98573.52
2023-07-31T03:58:07.796Z,98570.14
2023-07-31T04:05:14.439Z,98566.44
2023-07-31T04:08:17.439Z,98570.20
2023-07-31T04:11:20.282Z,98565.64
2023-07-31T04:14:23.287Z,98572.98
2023-07-31T04:17:26.173Z,98577.52
2023-07-31T04:20:29.230Z,98579.39
2023-07-31T04:23:32.195Z,98576.88
2023-07-31T04:26:35.039Z,98580.27
2023-07-31T04:29:38.116Z,98574.23
2023-07-31T04:32:41.023Z,98571.86
2023-07-31T04:35:53.673Z,98573.20
2023-07-31T04:38:57.278Z,98573.93
2023-07-31T04:42:00.408Z,98584.55
2023-07-31T04:45:03.540Z,98583.30
2023-07-31T04:48:07.675Z,98586.32
2023-07-31T04:51:13.374Z,98585.48
2023-07-31T04:54:19.172Z,98594.08
2023-07-31T04:57:22.044Z,98592.69
2023-07-31T05:00:25.026Z,98592.70
2023-07-31T05:03:28.765Z,98595.75
2023-07-31T05:06:32.321Z,98599.93
2023-07-31T05:09:35.224Z,98600.59
2023-07-31T05:12:38.311Z,98602.27
2023-07-31T05:15:43.142Z,98607.86
2023-07-31T05:18:46.158Z,98614.72
2023-07-31T05:21:49.349Z,98614.45
2023-07-31T05:24:52.336Z,98615.48
2023-07-31T05:27:55.123Z,98620.11
2023-07-31T05:31:05.972Z,98621.39
2023-07-31T05:34:09.291Z,98622.95
2023-07-31T05:37:13.449Z,98627.22
2023-07-31T06:05:11.714Z,98623.20
2023-07-31T06:08:15.639Z,98624.14
2023-07-31T06:11:18.433Z,98628.14
2023-07-31T06:14:21.610Z,98632.20
2023-07-31T06:17:24.986Z,98629.34
2023-07-31T06:20:27.959Z,98631.55
2023-07-31T06:23:32.144Z,98634.45
2023-07-31T06:26:34.839Z,98634.23
2023-07-31T06:29:38.107Z,98636.98
2023-07-31T06:32:42.430Z,98636.96
2023-07-31T06:35:45.505Z,98639.66
2023-07-31T06:38:48.387Z,98635.92
2023-07-31T06:41:51.282Z,98635.84
2023-07-31T06:44:53.986Z,98644.58
2023-07-31T06:47:57.006Z,98646.80
2023-07-31T06:50:59.868Z,98645.04
2023-07-31T06:54:02.875Z,98644.85
2023-07-31T06:57:06.516Z,98648.61
2023-07-31T07:00:10.206Z,98649.11
2023-07-31T07:03:13.533Z,98651.74
2023-07-31T07:06:16.539Z,98653.27
2023-07-31T07:09:19.697Z,98652.91
2023-07-31T07:12:22.319Z,98649.92
2023-07-31T07:19:13.309Z,98651.91
2023-07-31T07:22:16.210Z,98653.01
2023-07-31T07:25:19.661Z,98651.23
2023-07-31T07:28:22.436Z,98651.16
2023-07-31T07:31:25.585Z,98653.55
2023-07-31T07:34:29.751Z,98654.46
2023-07-31T07:37:33.905Z,98655.21
2023-07-31T07:40:41.436Z,98648.95
2023-07-31T07:43:44.125Z,98650.52
2023-07-31T07:46:47.142Z,98644.83
2023-07-31T07:49:53.273Z,98645.85
2023-07-31T07:52:57.097Z,98646.07
2023-07-31T07:55:59.982Z,98647.77
2023-07-31T07:59:02.663Z,98649.00
2023-07-31T08:02:05.686Z,98651.45
2023-07-31T08:05:10.173Z,98646.80
2023-07-31T08:08:19.187Z,98645.75
2023-07-31T08:11:23.629Z,98647.19
2023-07-31T08:14:26.609Z,98651.09
2023-07-31T08:17:29.218Z,98655.45
2023-07-31T08:20:31.980Z,98661.54
2023-07-31T08:23:36.499Z,98661.25
2023-07-31T08:26:39.578Z,98658.56
2023-07-31T08:29:42.381Z,98661.67
2023-07-31T08:32:44.985Z,98656.40
2023-07-31T08:35:48.087Z,98659.94
2023-07-31T08:38:51.654Z,98658.06
2023-07-31T08:41:59.664Z,98663.21
2023-07-31T08:45:03.165Z,98661.77
2023-07-31T08:48:06.112Z,98661.40
2023-07-31T08:51:08.935Z,98667.60
2023-07-31T08:54:11.624Z,98675.05
2023-07-31T08:57:16.359Z,98679.20
2023-07-31T09:00:22.000Z,98679.33
2023-07-31T09:03:28.003Z,98684.80
2023-07-31T09:06:32.604Z,98684.64
2023-07-31T09:09:35.274Z,98681.89
2023-07-31T09:12:38.875Z,98681.09
2023-07-31T09:15:44.012Z,98681.95
2023-07-31T09:22:08.342Z,98682.86
2023-07-31T09:25:31.183Z,98685.77
2023-07-31T09:28:33.960Z,98687.73
2023-07-31T09:31:42.876Z,98692.46
2023-07-31T09:34:45.634Z,98687.63
2023-07-31T09:37:57.392Z,98684.79
2023-07-31T09:41:01.087Z,98684.95
2023-07-31T09:44:03.972Z,98687.95
2023-07-31T09:47:06.751Z,98682.84
2023-07-31T09:50:10.554Z,98681.84
2023-07-31T09:53:13.927Z,98676.73
2023-07-31T09:56:18.655Z,98671.64
2023-07-31T09:59:22.956Z,98673.04
2023-07-31T10:05:46.408Z,98669.07
2023-07-31T10:08:52.261Z,98666.89
2023-07-31T10:12:01.920Z,98664.00
2023-07-31T10:15:04.935Z,98665.15
2023-07-31T10:18:07.784Z,98666.48
2023-07-31T10:21:10.364Z,98669.14
2023-07-31T10:24:12.728Z,98672.04
2023-07-31T10:27:14.675Z,98663.91
2023-07-31T10:30:20.366Z,98655.16
2023-07-31T10:33:22.835Z,98651.41
2023-07-31T10:36:24.823Z,98652.20
2023-07-31T10:39:39.041Z,98649.55
2023-07-31T10:42:49.372Z,98650.71
2023-07-31T10:45:51.493Z,98653.23
2023-07-31T10:49:02.251Z,98660.45
2023-07-31T10:52:05.271Z,98664.41
2023-07-31T10:55:24.503Z,98664.30
2023-07-31T10:58:26.957Z,98663.42
2023-07-31T11:01:53.131Z,98661.27
2023-07-31T11:05:11.502Z,98654.27
2023-07-31T11:08:23.590Z,98655.62
2023-07-31T11:11:25.594Z,98655.41
2023-07-31T11:14:27.932Z,98652.17
2023-07-31T11:17:30.438Z,98645.45
2023-07-31T11:20:33.701Z,98643.50
2023-07-31T11:23:39.044Z,98645.60
2023-07-31T11:26:52.610Z,98645.98
2023-07-31T11:30:01.223Z,98643.21
2023-07-31T11:33:04.879Z,98640.13
2023-07-31T11:36:17.153Z,98640.77
2023-07-31T11:39:19.023Z,98638.60
2023-07-31T11:42:20.761Z,98634.36
2023-07-31T11:45:27.187Z,98625.81
2023-07-31T11:48:35.239Z,98622.52
2023-07-31T11:51:37.306Z,98618.11
2023-07-31T11:54:41.658Z,98614.30
2023-07-31T11:57:45.637Z,98609.92
2023-07-31T12:00:48.620Z,98606.39
2023-07-31T12:03:51.803Z,98607.41
2023-07-31T12:06:56.063Z,98604.11
2023-07-31T12:10:00.378Z,98605.60
2023-07-31T12:13:03.560Z,98613.85
2023-07-31T12:16:06.208Z,98614.05
2023-07-31T12:19:08.437Z,98611.65
2023-07-31T12:22:17.157Z,98608.41
2023-07-31T12:25:19.296Z,98608.11
2023-07-31T12:28:23.468Z,98603.51
2023-07-31T12:31:29.438Z,98603.05
2023-07-31T12:34:31.289Z,98599.50
2023-07-31T12:37:33.935Z,98598.34
2023-07-31T12:40:38.792Z,98597.91
2023-07-31T12:43:42.174Z,98602.68
2023-07-31T12:46:44.249Z,98609.45
2023-07-31T12:49:46.510Z,98609.76
2023-07-31T12:52:48.455Z,98615.48
2023-07-31T12:55:50.725Z,98611.95
2023-07-31T12:58:52.734Z,98608.64
2023-07-31T13:01:54.727Z,98606.45
2023-07-31T13:04:56.932Z,98603.80
2023-07-31T13:07:59.175Z,98603.41
2023-07-31T13:11:01.479Z,98600.13
2023-07-31T13:14:03.578Z,98597.23
2023-07-31T13:17:07.589Z,98590.35
2023-07-31T13:20:11.947Z,98590.33
2023-07-31T13:23:14.263Z,98597.44
2023-07-31T13:26:16.128Z,98602.41
2023-07-31T13:29:18.106Z,98611.55
2023-07-31T13:32:21.513Z,98618.23
2023-07-31T13:35:23.358Z,98614.39
2023-07-31T13:38:25.212Z,98618.16
2023-07-31T13:41:27.612Z,98619.02
2023-07-31T13:44:29.740Z,98619.84
2023-07-31T13:47:32.993Z,98623.36
2023-07-31T13:50:35.431Z,98625.79
2023-07-31T13:53:37.884Z,98628.90
2023-07-31T13:56:40.240Z,98631.38
2023-07-31T13:59:42.606Z,98633.66
2023-07-31T14:05:32.606Z,98627.52
2023-07-31T14:08:34.842Z,98630.40
2023-07-31T14:11:40.636Z,98632.39
2023-07-31T14:14:45.098Z,98631.08
2023-07-31T14:17:47.387Z,98629.34
2023-07-31T14:20:50.184Z,98627.98
2023-07-31T14:23:52.374Z,98625.13
2023-07-31T14:26:54.467Z,98622.85
2023-07-31T14:29:57.195Z,98625.30
2023-07-31T14:33:01.449Z,98625.93
2023-07-31T14:36:03.912Z,98626.20
2023-07-31T14:39:06.313Z,98623.80
2023-07-31T14:42:08.435Z,98631.99
2023-07-31T14:45:11.416Z,98631.23
2023-07-31T14:48:14.406Z,98630.19
2023-07-31T14:51:18.363Z,98628.17
2023-07-31T14:54:20.515Z,98630.85
2023-07-31T14:57:23.084Z,98626.29
2023-07-31T15:00:27.356Z,98630.00
2023-07-31T15:03:31.129Z,98629.75
2023-07-31T15:06:33.289Z,98632.92
2023-07-31T15:09:35.550Z,98632.92
2023-07-31T15:12:39.856Z,98631.23
2023-07-31T15:15:42.157Z,98622.05
2023-07-31T15:18:44.361Z,98614.61
2023-07-31T15:21:46.490Z,98617.29
2023-07-31T15:24:50.634Z,98619.23
2023-07-31T15:27:53.099Z,98621.84
2023-07-31T15:30:55.387Z,98615.83
2023-07-31T15:33:57.472Z,98618.47
2023-07-31T15:36:59.802Z,98617.73
2023-07-31T15:40:02.074Z,98614.69
2023-07-31T15:43:05.078Z,98616.27
2023-07-31T15:46:07.111Z,98616.13
2023-07-31T15:49:09.227Z,98615.67
2023-07-31T15:52:11.649Z,98612.52
2023-07-31T15:55:13.578Z,98612.96
2023-07-31T15:58:16.764Z,98608.02
2023-07-31T16:01:18.959Z,98609.98
2023-07-31T16:04:21.266Z,98610.45
2023-07-31T16:07:24.405Z,98610.16
2023-07-31T16:10:26.870Z,98612.88
2023-07-31T16:13:28.868Z,98615.83
2023-07-31T16:16:31.209Z,98619.02
2023-07-31T16:19:33.711Z,98617.89
2023-07-31T16:22:35.749Z,98618.34
2023-07-31T16:25:38.045Z,98617.27
2023-07-31T16:28:40.162Z,98612.12
2023-07-31T16:31:55.366Z,98610.80
2023-07-31T16:34:59.912Z,98609.87
2023-07-31T16:38:02.082Z,98608.83
2023-07-31T16:41:04.006Z,98608.41
2023-07-31T16:44:06.155Z,98609.05
2023-07-31T16:47:08.301Z,98613.35
2023-07-31T16:50:10.502Z,98613.98
2023-07-31T16:53:12.930Z,98611.31
2023-07-31T16:56:15.800Z,98613.99
2023-07-31T16:59:18.829Z,98621.27
2023-07-31T17:02:21.338Z,98625.86
2023-07-31T17:05:24.695Z,98628.27
2023-07-31T17:08:26.542Z,98627.88
2023-07-31T17:11:28.752Z,98636.00
2023-07-31T17:14:31.080Z,98638.81
2023-07-31T17:17:33.384Z,98641.96
2023-07-31T17:20:35.770Z,98645.98
2023-07-31T17:23:38.200Z,98648.52
2023-07-31T17:26:40.294Z,98650.27
2023-07-31T17:29:42.459Z,98647.54
2023-07-31T17:32:44.862Z,98652.73
2023-07-31T17:35:47.308Z,98653.59
2023-07-31T17:38:50.165Z,98653.97
2023-07-31T17:41:52.665Z,98661.64
2023-07-31T17:44:55.001Z,98666.89
2023-07-31T17:47:57.445Z,98669.39
2023-07-31T17:50:59.704Z,98667.98
2023-07-31T17:54:02.033Z,98669.01
2023-07-31T17:57:05.672Z,98668.91
2023-07-31T18:00:08.509Z,98671.42
2023-07-31T18:05:11.919Z,98678.84
2023-07-31T18:08:15.026Z,98683.27
2023-07-31T18:11:18.076Z,98682.98
2023-07-31T18:14:23.202Z,98682.17
2023-07-31T18:17:27.641Z,98678.17
2023-07-31T18:20:30.909Z,98683.86
2023-07-31T18:23:34.841Z,98686.13
2023-07-31T18:26:38.898Z,98684.94
2023-07-31T18:29:42.871Z,98684.46
2023-07-31T18:46:17.085Z,98688.29
2023-07-31T18:49:20.230Z,98687.84
2023-07-31T18:52:23.183Z,98691.67
2023-07-31T18:55:27.475Z,98698.52
2023-07-31T18:58:31.268Z,98694.84
2023-07-31T19:01:34.441Z,98700.48
2023-07-31T19:04:37.443Z,98700.19
2023-07-31T19:07:40.659Z,98701.48
2023-07-31T19:10:44.565Z,98695.38
2023-07-31T19:13:48.809Z,98690.94
2023-07-31T19:16:52.242Z,98687.28
2023-07-31T19:19:55.793Z,98686.61
2023-07-31T19:23:00.238Z,98687.36
2023-07-31T19:26:05.642Z,98688.52
2023-07-31T19:29:08.967Z,98692.08
2023-07-31T19:32:12.257Z,98696.39
2023-07-31T19:35:16.769Z,98696.19
2023-07-31T19:38:19.589Z,98691.88
2023-07-31T19:41:22.659Z,98698.88
2023-07-31T19:44:26.183Z,98701.98
2023-07-31T19:47:29.678Z,98702.48
2023-07-31T19:50:32.723Z,98706.11
2023-07-31T19:53:35.535Z,98706.70
2023-07-31T19:56:39.032Z,98706.77
2023-07-31T19:59:42.262Z,98708.55
2023-07-31T20:02:45.530Z,98702.64
2023-07-31T20:05:50.163Z,98703.67
2023-07-31T20:08:53.254Z,98705.09
2023-07-31T20:11:57.395Z,98707.49
2023-07-31T20:28:35.454Z,98708.00
2023-07-31T20:31:41.378Z,98708.95
2023-07-31T20:34:44.094Z,98706.52
2023-07-31T20:37:47.005Z,98701.32
2023-07-31T20:40:53.268Z,98697.54
2023-07-31T20:43:56.203Z,98700.48
2023-07-31T20:46:58.964Z,98697.45
2023-07-31T20:50:01.792Z,98691.63
2023-07-31T20:53:05.646Z,98691.61
2023-07-31T20:56:08.579Z,98691.45
2023-07-31T20:59:11.456Z,98694.91
2023-07-31T21:02:14.791Z,98694.94
2023-07-31T21:05:18.005Z,98695.27
2023-07-31T21:08:21.087Z,98692.23
2023-07-31T21:11:25.215Z,98690.40
2023-07-31T21:14:27.964Z,98687.02
2023-07-31T21:17:30.778Z,98684.55
2023-07-31T21:20:33.516Z,98685.02
2023-07-31T21:23:36.577Z,98683.55
2023-07-31T21:26:41.071Z,98693.04
2023-07-31T21:29:47.514Z,98689.87
2023-07-31T21:32:50.506Z,98687.29
2023-07-31T21:35:53.507Z,98685.58
2023-07-31T21:38:56.688Z,98685.77
2023-07-31T21:41:59.466Z,98682.60
2023-07-31T21:45:02.148Z,98679.69
2023-07-31T21:48:05.585Z,98675.41
2023-07-31T21:51:09.424Z,98674.90
2023-07-31T21:54:12.300Z,98673.94
2023-07-31T21:57:15.063Z,98670.17
2023-07-31T22:00:17.916Z,98669.84
2023-07-31T22:05:11.802Z,98668.73
2023-07-31T22:08:14.750Z,98672.17
2023-07-31T22:11:17.716Z,98676.41
2023-07-31T22:14:20.418Z,98680.87
2023-07-31T22:17:23.416Z,98680.89
2023-07-31T22:20:26.090Z,98672.77
2023-07-31T22:23:28.917Z,98673.30
2023-07-31T22:26:31.752Z,98670.80
2023-07-31T22:29:34.711Z,98671.31
2023-07-31T22:32:37.446Z,98669.75
2023-07-31T22:35:40.426Z,98681.23
2023-07-31T22:38:43.113Z,98683.04
2023-07-31T22:41:45.737Z,98683.92
2023-07-31T22:44:48.476Z,98685.55
2023-07-31T22:47:51.290Z,98686.59
2023-07-31T22:50:54.140Z,98685.52
2023-07-31T22:53:56.832Z,98679.71
2023-07-31T22:56:59.712Z,98675.70
2023-07-31T23:00:02.583Z,98676.11
2023-07-31T23:03:05.580Z,98683.02
2023-07-31T23:06:08.691Z,98684.04
2023-07-31T23:09:11.549Z,98687.08
2023-07-31T23:12:14.492Z,98686.13
2023-07-31T23:15:17.318Z,98685.89
2023-07-31T23:18:20.114Z,98683.38
2023-07-31T23:21:22.906Z,98680.67
2023-07-31T23:24:25.977Z,98684.16
2023-07-31T23:27:28.827Z,98683.03
2023-07-31T23:30:32.079Z,98684.86
2023-07-31T23:33:34.900Z,98680.79
2023-07-31T23:43:48.469Z,98680.27
2023-07-31T23:46:51.143Z,98671.46
2023-07-31T23:49:54.237Z,98673.16
2023-07-31T23:52:57.804Z,98671.84
2023-07-31T23:56:01.061Z,98673.50
2023-07-31T23:59:04.729Z,98673.40
